Time;durP1;ratioP1;P1;durP2;ratioP2;P2;SDS_P1;SDS_P2;PMS_P1;PMS_P2;Temp;Humidity;BMP_temperature;BMP_pressure;BME280_temperature;BME280_humidity;BME280_pressure;Samples;Min_cycle;Max_cycle;Signal;HPM_P1;HPM_P2
2022/03/19 00:01:43;;;;;;;247.52;95.03;;;;;;;-1.78;52.64;102924.94;1955386;91;27807;-66
2022/03/19 00:04:48;;;;;;;215.82;83.60;;;;;;;-1.80;52.65;102924.86;1939798;91;28827;-62
2022/03/19 00:07:50;;;;;;;352.20;132.25;;;;;;;-1.82;52.76;102928.26;1955463;91;31114;-60
2022/03/19 00:10:54;;;;;;;643.58;285.10;;;;;;;-1.85;53.01;102930.34;1939576;90;31091;-73
2022/03/19 00:13:56;;;;;;;629.70;268.48;;;;;;;-1.87;53.53;102932.00;1955080;91;29784;-66
2022/03/19 00:16:59;;;;;;;553.27;233.53;;;;;;;-1.91;53.50;102931.37;1939808;91;27791;-60
2022/03/19 00:20:06;;;;;;;603.30;249.60;;;;;;;-1.93;53.59;102923.84;1985666;86;28099;-60
2022/03/19 00:23:14;;;;;;;555.37;236.55;;;;;;;-1.95;53.48;102923.78;2040569;87;31161;-63
2022/03/19 00:26:16;;;;;;;535.58;220.55;;;;;;;-1.97;53.60;102929.77;2053016;85;33658;-61
2022/03/19 00:29:18;;;;;;;547.35;230.40;;;;;;;-2.01;53.71;102919.16;2067012;85;30141;-64
2022/03/19 00:32:20;;;;;;;552.67;223.18;;;;;;;-2.03;53.75;102923.44;2007673;86;27650;-61
2022/03/19 00:35:23;;;;;;;448.75;174.97;;;;;;;-2.04;53.94;102933.46;1995301;89;28782;-60
2022/03/19 00:38:25;;;;;;;488.85;190.80;;;;;;;-2.06;53.92;102929.86;1995830;86;32288;-65
2022/03/19 00:41:27;;;;;;;522.20;207.80;;;;;;;-2.09;54.22;102924.46;1997110;89;33867;-72
2022/03/19 00:44:28;;;;;;;526.17;203.07;;;;;;;-2.10;54.37;102919.16;1999866;89;30484;-67
2022/03/19 00:47:30;;;;;;;530.60;214.40;;;;;;;-2.12;54.42;102918.18;1997528;89;28264;-69
2022/03/19 00:50:33;;;;;;;498.50;193.37;;;;;;;-2.14;54.50;102914.16;2031081;86;28765;-63
2022/03/19 00:53:35;;;;;;;450.35;174.27;;;;;;;-2.15;54.37;102908.02;2031935;87;32139;-76
2022/03/19 00:56:37;;;;;;;486.12;188.80;;;;;;;-2.16;54.53;102910.16;2028402;87;34056;-66
2022/03/19 00:59:39;;;;;;;487.52;199.70;;;;;;;-2.18;54.60;102906.98;2040467;87;30114;-63
2022/03/19 01:02:44;;;;;;;445.68;188.18;;;;;;;-2.18;54.98;102907.87;2071985;85;27685;-65
2022/03/19 01:05:46;;;;;;;338.30;133.25;;;;;;;-2.18;54.89;102909.19;2075105;85;28756;-58
2022/03/19 01:08:49;;;;;;;433.50;172.98;;;;;;;-2.16;54.98;102904.02;2066806;86;31343;-60
2022/03/19 01:11:52;;;;;;;425.65;166.73;;;;;;;-2.17;55.05;102895.23;2067690;86;34364;-59
2022/03/19 01:14:54;;;;;;;425.40;168.43;;;;;;;-2.15;55.19;102904.08;2067070;86;30081;-58
2022/03/19 01:17:57;;;;;;;388.57;151.25;;;;;;;-2.14;55.27;102901.94;2067808;86;27696;-62
2022/03/19 01:20:59;;;;;;;380.95;150.00;;;;;;;-2.12;55.37;102898.48;2058534;86;29896;-60
2022/03/19 01:24:01;;;;;;;370.95;146.53;;;;;;;-2.11;55.49;102906.42;1994971;89;31868;-59
2022/03/19 01:27:04;;;;;;;348.50;135.75;;;;;;;-2.07;55.69;102903.54;2033901;87;33868;-61
2022/03/19 01:30:08;;;;;;;332.90;132.65;;;;;;;-2.04;55.92;102905.88;2031067;87;31460;-63
2022/03/19 01:33:10;;;;;;;343.77;134.50;;;;;;;-1.99;55.98;102903.45;2028638;87;27634;-60
2022/03/19 01:36:14;;;;;;;349.77;138.35;;;;;;;-1.92;56.08;102901.59;2036924;86;29396;-62
2022/03/19 01:39:17;;;;;;;336.00;134.90;;;;;;;-1.87;56.21;102902.67;2035679;87;31079;-60
2022/03/19 01:42:34;;;;;;;323.85;132.15;;;;;;;-1.80;56.08;102897.27;2035634;87;32978;-59
2022/03/19 01:45:36;;;;;;;342.87;133.37;;;;;;;-1.73;56.25;102898.42;2035738;87;29397;-63
2022/03/19 01:48:38;;;;;;;328.40;131.35;;;;;;;-1.65;56.42;102896.16;2035600;87;27762;-61
2022/03/19 01:51:40;;;;;;;335.75;126.80;;;;;;;-1.59;56.48;102894.70;2066739;85;29920;-58
2022/03/19 01:54:48;;;;;;;296.68;117.57;;;;;;;-1.51;56.52;102889.76;2073934;85;31755;-59
2022/03/19 01:57:52;;;;;;;291.57;116.90;;;;;;;-1.45;56.56;102887.37;2073824;85;33638;-58
2022/03/19 02:00:55;;;;;;;272.50;111.32;;;;;;;-1.37;56.69;102881.12;2063460;86;29415;-73
2022/03/19 02:03:58;;;;;;;299.00;119.80;;;;;;;-1.31;56.69;102880.06;2037000;86;27713;-71
2022/03/19 02:07:01;;;;;;;315.43;124.75;;;;;;;-1.24;56.68;102882.53;2033182;86;29561;-70
2022/03/19 02:10:04;;;;;;;296.50;114.45;;;;;;;-1.19;56.69;102878.37;2031064;87;31245;-68
2022/03/19 02:13:07;;;;;;;270.93;111.10;;;;;;;-1.13;56.88;102881.22;2031903;87;33788;-69
2022/03/19 02:16:09;;;;;;;256.30;106.87;;;;;;;-1.05;56.80;102880.22;2044151;86;28549;-72
2022/03/19 02:19:12;;;;;;;269.62;106.55;;;;;;;-0.99;56.83;102880.91;2033046;87;27655;-64
2022/03/19 02:22:14;;;;;;;262.57;106.05;;;;;;;-0.93;56.86;102875.47;2071033;84;29765;-74
2022/03/19 02:25:36;;;;;;;243.80;100.87;;;;;;;-0.87;56.93;102872.58;2060710;85;31260;-70
2022/03/19 02:28:37;;;;;;;236.77;99.20;;;;;;;-0.80;56.93;102874.63;2036865;87;33337;-70
2022/03/19 02:31:42;;;;;;;262.68;105.85;;;;;;;-0.72;57.04;102873.61;2040747;86;30550;-67
2022/03/19 02:34:44;;;;;;;278.40;109.87;;;;;;;-0.67;57.02;102866.37;2031375;87;28123;-69
2022/03/19 02:37:49;;;;;;;254.35;105.70;;;;;;;-0.63;56.95;102866.97;2055333;86;29487;-68
2022/03/19 02:40:51;;;;;;;246.70;99.80;;;;;;;-0.58;56.94;102868.45;2059270;86;31101;-66
2022/03/19 02:43:53;;;;;;;256.73;102.10;;;;;;;-0.53;56.93;102869.55;2000041;89;33797;-73
2022/03/19 02:46:59;;;;;;;285.00;114.22;;;;;;;-0.49;56.93;102864.84;2031749;87;30111;-69
2022/03/19 02:50:01;;;;;;;312.08;126.65;;;;;;;-0.43;56.92;102865.92;2021361;87;27671;-74
2022/03/19 02:53:10;;;;;;;351.90;141.77;;;;;;;-0.38;57.07;102860.42;2000952;86;29065;-72
2022/03/19 02:56:12;;;;;;;406.52;161.55;;;;;;;-0.34;57.06;102857.95;2017949;88;31293;-71
2022/03/19 02:59:17;;;;;;;529.48;210.97;;;;;;;-0.29;57.03;102859.42;2036000;87;33739;-73
2022/03/19 03:02:19;;;;;;;;;;;;;;;-0.25;57.03;102858.70;2038074;87;29445;-73
2022/03/19 03:05:21;;;;;;;572.30;228.77;;;;;;;-0.20;57.13;102853.60;2072235;85;27788;-72
2022/03/19 03:08:23;;;;;;;498.43;199.70;;;;;;;-0.17;57.18;102856.36;2080335;85;28886;-73
2022/03/19 03:11:25;;;;;;;409.33;165.37;;;;;;;-0.12;57.21;102859.15;2076533;85;31207;-74
2022/03/19 03:14:27;;;;;;;412.23;156.12;;;;;;;-0.08;57.21;102853.16;2080502;85;34157;-71
2022/03/19 03:17:29;;;;;;;423.85;153.85;;;;;;;-0.04;57.26;102850.68;2080504;85;30136;-73
2022/03/19 03:20:33;;;;;;;309.85;124.30;;;;;;;0.01;57.20;102853.91;2069580;85;27697;-70
2022/03/19 03:23:36;;;;;;;276.00;108.27;;;;;;;0.03;57.24;102853.55;2046317;86;28874;-66
2022/03/19 03:26:40;;;;;;;312.85;117.10;;;;;;;0.07;57.30;102855.45;2068490;86;31112;-62
2022/03/19 03:29:43;;;;;;;268.93;105.07;;;;;;;0.11;57.26;102854.70;2068570;85;33624;-72
2022/03/19 03:32:45;;;;;;;243.82;99.85;;;;;;;0.13;57.15;102855.65;2068822;86;30109;-67
2022/03/19 03:35:47;;;;;;;249.40;101.50;;;;;;;0.15;57.12;102852.65;2069063;85;27701;-73
2022/03/19 03:38:50;;;;;;;242.45;98.92;;;;;;;0.17;57.20;102848.33;2068450;86;29478;-71
2022/03/19 03:41:52;;;;;;;251.22;102.72;;;;;;;0.20;57.37;102849.77;2068548;85;31879;-62
2022/03/19 03:44:58;;;;;;;261.18;104.78;;;;;;;0.20;57.36;102848.45;2068534;86;34431;-58
2022/03/19 03:47:58;;;;;;;249.98;109.42;;;;;;;0.23;57.48;102851.20;2068459;86;31470;-59
2022/03/19 03:51:01;;;;;;;254.93;106.80;;;;;;;0.25;57.50;102850.80;2068893;85;27762;-62
2022/03/19 03:54:05;;;;;;;242.28;98.95;;;;;;;0.28;57.41;102846.95;2052847;85;29402;-72
2022/03/19 03:57:07;;;;;;;253.70;105.93;;;;;;;0.30;57.35;102847.03;2061134;85;31219;-72
2022/03/19 04:00:10;;;;;;;260.85;107.78;;;;;;;0.32;57.31;102850.61;2029138;87;32394;-68
2022/03/19 04:03:13;;;;;;;307.02;117.85;;;;;;;0.32;57.23;102851.94;2019307;86;29332;-71
2022/03/19 04:06:15;;;;;;;297.82;115.05;;;;;;;0.33;57.28;102851.49;2018619;87;27602;-70
2022/03/19 04:09:17;;;;;;;331.13;128.20;;;;;;;0.31;57.17;102850.14;2027966;87;29692;-70
2022/03/19 04:12:22;;;;;;;328.05;132.90;;;;;;;0.32;57.19;102849.30;2028421;87;31162;-72
2022/03/19 04:15:23;;;;;;;366.60;139.37;;;;;;;0.33;57.30;102843.58;2022613;86;33337;-66
2022/03/19 04:18:26;;;;;;;351.70;139.00;;;;;;;0.34;57.38;102847.58;1995023;88;29928;-65
2022/03/19 04:21:28;;;;;;;351.77;138.68;;;;;;;0.36;57.29;102847.66;1988421;89;27656;-72
2022/03/19 04:24:30;;;;;;;343.00;136.70;;;;;;;0.36;57.42;102844.58;1991725;89;29521;-72
2022/03/19 04:27:33;;;;;;;357.87;139.05;;;;;;;0.37;57.34;102844.17;1991724;89;32067;-67
2022/03/19 04:30:35;;;;;;;399.37;154.68;;;;;;;0.38;57.49;102848.60;2016266;86;33832;-72
2022/03/19 04:33:37;;;;;;;431.05;159.43;;;;;;;0.39;57.60;102842.05;2089195;85;29562;-67
2022/03/19 04:36:40;;;;;;;426.05;162.07;;;;;;;0.39;57.59;102839.84;2064399;86;27723;-72
2022/03/19 04:39:43;;;;;;;431.70;160.50;;;;;;;0.40;57.71;102835.93;2064311;86;28757;-68
2022/03/19 04:42:45;;;;;;;403.12;152.65;;;;;;;0.43;57.65;102832.49;2064508;86;31739;-76
2022/03/19 04:45:47;;;;;;;318.50;122.10;;;;;;;0.42;57.65;102825.02;2064336;86;33855;-70
2022/03/19 04:48:50;;;;;;;180.60;73.90;;;;;;;0.44;57.76;102827.69;2064293;86;30071;-72
2022/03/19 04:51:52;;;;;;;154.55;66.60;;;;;;;0.45;57.85;102835.67;2064686;86;27598;-71
2022/03/19 04:54:57;;;;;;;125.53;60.90;;;;;;;0.45;58.01;102829.08;2064420;86;28660;-71
2022/03/19 04:57:58;;;;;;;131.95;60.45;;;;;;;0.47;58.14;102833.52;2045997;86;32412;-69
2022/03/19 05:01:02;;;;;;;119.17;57.60;;;;;;;0.49;58.14;102830.07;2044176;86;32978;-65
2022/03/19 05:04:05;;;;;;;110.55;54.73;;;;;;;0.52;58.34;102832.81;2034537;87;28869;-71
2022/03/19 05:07:07;;;;;;;117.10;56.55;;;;;;;0.55;58.30;102830.28;2034479;87;27610;-76
2022/03/19 05:13:34;;;;;;;113.62;55.03;;;;;;;0.65;58.33;102834.53;2034204;87;33147;-76
2022/03/19 05:16:35;;;;;;;;;;;;;;;0.70;58.46;102831.19;2000860;86;32720;-72
2022/03/19 05:19:38;;;;;;;124.82;57.33;;;;;;;0.74;58.56;102831.77;1997012;88;30491;-67
2022/03/19 05:22:40;;;;;;;112.77;56.65;;;;;;;0.78;58.47;102839.79;2001251;89;27615;-72
2022/03/19 05:25:43;;;;;;;127.10;57.73;;;;;;;0.81;58.43;102831.54;2000833;89;30028;-75
2022/03/19 05:28:45;;;;;;;117.22;57.58;;;;;;;0.87;58.45;102838.75;2044346;86;31764;-71
2022/03/19 05:31:48;;;;;;;125.85;58.33;;;;;;;0.91;58.46;102836.69;2070555;86;33409;-71
2022/03/19 05:34:50;;;;;;;116.28;57.10;;;;;;;0.98;58.59;102836.05;2070717;86;30245;-75
2022/03/19 05:37:53;;;;;;;119.17;55.78;;;;;;;1.06;58.73;102833.20;2051643;86;28233;-74
2022/03/19 05:40:56;;;;;;;121.25;58.23;;;;;;;1.13;58.63;102835.61;2037515;87;29916;-76
2022/03/19 05:43:58;;;;;;;114.17;56.48;;;;;;;1.22;58.57;102837.63;2004168;86;31853;-74
2022/03/19 05:47:05;;;;;;;116.53;60.63;;;;;;;1.30;58.46;102839.19;2000733;89;33663;-74
2022/03/19 05:50:08;;;;;;;123.53;60.58;;;;;;;1.39;58.60;102839.48;2001003;89;29257;-73
2022/03/19 05:53:11;;;;;;;128.53;61.58;;;;;;;1.49;58.78;102844.17;2012920;87;27726;-74
2022/03/19 05:56:13;;;;;;;122.33;58.87;;;;;;;1.60;58.68;102844.89;2039536;86;28753;-76
2022/03/19 05:59:19;;;;;;;97.55;53.45;;;;;;;1.71;58.62;102845.20;2004256;88;31269;-73
2022/03/19 06:02:21;;;;;;;93.00;47.20;;;;;;;1.84;57.96;102844.69;2004443;88;32956;-72
2022/03/19 06:05:24;;;;;;;89.47;46.02;;;;;;;2.01;57.56;102846.50;2004709;88;29761;-72
2022/03/19 06:08:26;;;;;;;84.80;45.25;;;;;;;2.20;57.47;102848.31;2004879;88;27687;-71
2022/03/19 06:11:29;;;;;;;81.20;43.38;;;;;;;2.40;57.06;102855.00;2049384;86;28741;-71
2022/03/19 06:14:33;;;;;;;71.72;39.30;;;;;;;2.62;56.06;102853.34;2060500;86;31039;-68
2022/03/19 06:17:35;;;;;;;118.50;55.10;;;;;;;2.84;55.49;102849.47;2058793;86;33628;-64
2022/03/19 06:20:37;;;;;;;134.78;63.20;;;;;;;3.08;55.22;102855.77;2060660;86;30485;-61
2022/03/19 06:23:40;;;;;;;174.32;81.63;;;;;;;3.36;54.09;102859.47;2060692;86;28321;-72
2022/03/19 06:26:42;;;;;;;78.00;38.28;;;;;;;3.62;53.63;102856.05;2055905;85;29197;-64
2022/03/19 06:29:46;;;;;;;67.03;33.98;;;;;;;3.90;52.55;102851.29;2055008;86;31913;-72
2022/03/19 06:32:48;;;;;;;70.62;36.80;;;;;;;4.27;52.02;102854.64;2055340;86;33847;-65
2022/03/19 06:39:11;;;;;;;61.10;35.17;;;;;;;5.15;49.69;102858.71;2048274;85;27720;-74
2022/03/19 06:42:13;;;;;;;52.65;30.88;;;;;;;5.51;48.61;102855.64;2055055;86;30135;-64
2022/03/19 06:45:15;;;;;;;64.80;34.30;;;;;;;5.94;48.71;102856.15;2055493;86;31444;-72
2022/03/19 06:48:17;;;;;;;50.25;26.55;;;;;;;6.39;46.71;102856.64;2055165;86;33573;-72
2022/03/19 06:51:20;;;;;;;53.10;27.85;;;;;;;6.91;45.63;102854.83;2055063;86;30686;-73
2022/03/19 06:54:21;;;;;;;48.55;26.05;;;;;;;7.27;45.88;102851.95;2059216;85;27683;-63
2022/03/19 06:57:24;;;;;;;48.25;25.57;;;;;;;7.64;44.40;102858.35;2053618;86;28836;-71
2022/03/19 07:00:27;;;;;;;45.28;26.37;;;;;;;7.83;41.98;102853.53;2033767;87;31646;-72
2022/03/19 07:03:29;;;;;;;53.13;27.37;;;;;;;8.09;44.19;102856.70;2033369;87;33835;-70
2022/03/19 07:06:32;;;;;;;43.55;25.75;;;;;;;8.37;42.07;102854.06;2037334;86;29716;-73
2022/03/19 07:09:34;;;;;;;36.58;21.57;;;;;;;8.43;40.37;102855.41;2067743;86;28016;-74
2022/03/19 07:12:44;;;;;;;43.70;23.83;;;;;;;8.58;39.85;102867.03;2067347;86;29265;-76
2022/03/19 07:15:45;;;;;;;36.40;21.62;;;;;;;8.78;39.91;102866.59;2052891;86;32330;-72
2022/03/19 07:18:47;;;;;;;35.05;21.23;;;;;;;8.84;39.16;102859.46;2054110;86;34109;-70
2022/03/19 07:21:49;;;;;;;34.38;22.00;;;;;;;8.86;37.67;102862.56;2053616;86;29713;-74
2022/03/19 07:24:51;;;;;;;40.30;24.18;;;;;;;8.44;38.54;102857.66;2043420;86;27682;-73
2022/03/19 07:27:57;;;;;;;37.03;22.48;;;;;;;8.16;40.20;102865.61;2058255;86;29089;-69
2022/03/19 07:31:00;;;;;;;40.65;22.42;;;;;;;7.95;39.64;102867.33;2058304;86;31845;-76
2022/03/19 07:34:03;;;;;;;68.55;37.63;;;;;;;7.80;40.38;102868.20;2069395;85;34303;-74
2022/03/19 07:37:06;;;;;;;41.15;25.37;;;;;;;7.78;39.99;102873.97;2074065;85;30050;-73
2022/03/19 07:40:11;;;;;;;48.48;29.12;;;;;;;7.88;39.06;102872.22;2073806;85;27730;-78
2022/03/19 07:43:14;;;;;;;44.42;24.43;;;;;;;8.09;37.55;102875.39;2063994;86;28664;-61
2022/03/19 07:46:16;;;;;;;39.42;21.73;;;;;;;8.39;36.90;102880.33;2067691;86;31079;-75
2022/03/19 07:49:18;;;;;;;38.67;23.10;;;;;;;8.82;38.00;102875.48;2066690;86;34127;-69
2022/03/19 07:52:20;;;;;;;37.25;21.77;;;;;;;9.11;37.44;102878.56;2067234;86;30669;-71
2022/03/19 07:55:24;;;;;;;42.03;22.90;;;;;;;9.37;36.21;102882.98;2067193;86;27685;-77
2022/03/19 07:58:26;;;;;;;45.78;26.57;;;;;;;9.51;36.08;102878.93;2040453;86;29358;-75
2022/03/19 08:01:28;;;;;;;39.88;22.95;;;;;;;9.67;35.63;102882.42;2032343;87;32296;-61
2022/03/19 08:04:32;;;;;;;43.08;26.33;;;;;;;9.73;35.53;102884.63;2056286;86;29799;-64
2022/03/19 08:07:37;;;;;;;42.58;26.65;;;;;;;10.03;35.43;102883.15;2067041;86;30132;-63
2022/03/19 08:10:39;;;;;;;43.33;28.17;;;;;;;10.29;34.34;102886.10;2067591;86;28355;-62
2022/03/19 08:13:42;;;;;;;41.35;26.62;;;;;;;10.46;35.29;102890.93;2067654;86;28715;-64
2022/03/19 08:16:45;;;;;;;48.48;28.50;;;;;;;10.78;34.70;102896.95;2067244;86;32370;-61
2022/03/19 08:19:47;;;;;;;43.75;26.73;;;;;;;10.83;33.93;102892.88;2067033;86;32915;-73
2022/03/19 08:22:48;;;;;;;49.10;27.77;;;;;;;11.02;34.07;102891.81;2064422;86;30175;-73
2022/03/19 08:25:51;;;;;;;39.92;24.32;;;;;;;11.18;33.36;102895.22;2059972;86;27730;-65
2022/03/19 08:28:53;;;;;;;41.92;24.98;;;;;;;11.24;32.41;102886.23;2054341;86;29915;-65
2022/03/19 08:31:57;;;;;;;34.55;24.47;;;;;;;11.14;33.33;102896.61;2054985;85;32259;-62
2022/03/19 08:35:00;;;;;;;40.17;25.45;;;;;;;11.02;33.07;102894.92;2070795;86;32662;-61
2022/03/19 08:41:25;;;;;;;38.53;24.37;;;;;;;11.16;32.92;102880.95;2060333;86;27697;-66
2022/03/19 08:44:27;;;;;;;38.40;22.93;;;;;;;10.92;32.78;102896.38;2060406;86;28749;-60
2022/03/19 08:47:30;;;;;;;35.45;21.02;;;;;;;10.57;31.43;102895.34;2060194;86;31869;-60
2022/03/19 08:50:32;;;;;;;38.60;22.07;;;;;;;10.32;32.28;102896.80;2060147;86;33831;-61
2022/03/19 08:53:36;;;;;;;34.08;21.42;;;;;;;10.16;31.65;102896.91;2060383;86;29171;-61
2022/03/19 08:56:38;;;;;;;34.58;20.77;;;;;;;9.93;31.71;102893.02;2060452;86;27769;-60
2022/03/19 08:59:40;;;;;;;35.78;20.08;;;;;;;9.74;31.23;102892.22;2060044;86;29240;-60
2022/03/19 09:02:43;;;;;;;36.50;23.02;;;;;;;9.54;31.20;102902.55;2060561;86;31703;-60
2022/03/19 09:06:01;;;;;;;34.45;21.02;;;;;;;9.43;31.52;102897.23;2060412;86;33679;-59
2022/03/19 09:09:06;;;;;;;37.20;20.27;;;;;;;9.38;31.24;102903.02;2054807;86;29917;-59
2022/03/19 09:12:10;;;;;;;30.72;19.75;;;;;;;9.23;30.43;102897.28;2034204;87;27706;-59
2022/03/19 09:15:13;;;;;;;33.40;20.77;;;;;;;9.08;29.96;102895.97;2060790;86;28699;-65
2022/03/19 09:18:16;;;;;;;29.40;18.87;;;;;;;9.02;31.22;102890.16;2055364;86;30451;-59
2022/03/19 09:21:18;;;;;;;28.25;18.92;;;;;;;9.05;30.72;102891.96;2038097;86;32979;-60
2022/03/19 09:24:21;;;;;;;27.42;16.70;;;;;;;8.95;30.79;102885.73;2063234;86;29417;-60
2022/03/19 09:27:23;;;;;;;25.55;16.35;;;;;;;9.02;29.94;102887.48;2031205;87;27729;-62
2022/03/19 09:30:25;;;;;;;29.92;18.62;;;;;;;9.02;30.37;102884.81;2016506;86;29353;-63
2022/03/19 09:33:26;;;;;;;22.87;14.25;;;;;;;8.99;30.62;102878.16;1994130;89;31477;-60
2022/03/19 09:36:29;;;;;;;26.05;15.30;;;;;;;8.94;28.71;102875.47;2011796;86;33349;-59
2022/03/19 09:39:34;;;;;;;25.45;15.43;;;;;;;8.94;28.94;102880.81;2034657;87;28872;-59
2022/03/19 09:42:36;;;;;;;;;;;;;;;8.91;29.71;102874.59;2034449;87;28255;-60
2022/03/19 09:45:41;;;;;;;24.10;13.68;;;;;;;8.87;27.97;102884.41;2005158;87;29185;-59
2022/03/19 09:48:43;;;;;;;27.22;12.82;;;;;;;8.78;27.99;102877.70;2031128;87;31435;-60
2022/03/19 09:51:53;;;;;;;22.60;14.03;;;;;;;8.70;27.91;102883.52;2035091;86;33299;-60
2022/03/19 09:54:59;;;;;;;28.73;16.00;;;;;;;8.63;28.42;102880.83;2034706;86;29331;-60
2022/03/19 09:58:04;;;;;;;22.87;14.35;;;;;;;8.63;28.46;102876.82;2052854;86;27780;-59
2022/03/19 10:01:07;;;;;;;27.55;15.68;;;;;;;8.68;28.87;102875.94;2064745;86;29917;-60
2022/03/19 10:04:12;;;;;;;26.70;15.78;;;;;;;8.79;29.09;102876.39;2064407;86;31911;-62
2022/03/19 10:10:34;;;;;;;24.75;15.83;;;;;;;8.70;29.25;102875.03;2042021;86;29547;-58
2022/03/19 10:13:44;;;;;;;28.80;17.32;;;;;;;8.61;29.15;102886.61;2064674;86;27774;-63
2022/03/19 10:16:51;;;;;;;29.42;15.23;;;;;;;8.55;28.94;102877.70;2064761;86;29538;-61
2022/03/19 10:20:01;;;;;;;24.60;13.22;;;;;;;8.56;29.30;102874.14;2064800;86;31069;-60
2022/03/19 10:23:05;;;;;;;20.80;13.53;;;;;;;8.58;28.39;102895.08;2059571;86;33843;-61
2022/03/19 10:26:08;;;;;;;23.67;13.80;;;;;;;8.58;28.57;102877.28;2064520;86;29828;-61
2022/03/19 10:29:10;;;;;;;22.95;13.45;;;;;;;8.55;28.36;102888.39;2064418;86;27670;-59
2022/03/19 10:32:13;;;;;;;24.07;13.22;;;;;;;8.60;28.47;102876.84;2064314;86;30060;-63
2022/03/19 10:35:41;;;;;;;18.80;12.95;;;;;;;8.61;27.73;102872.38;2064108;86;31941;-61
2022/03/19 10:38:45;;;;;;;22.98;13.43;;;;;;;8.57;27.73;102878.61;2064621;86;33785;-62
2022/03/19 10:41:48;;;;;;;21.10;13.75;;;;;;;8.52;28.03;102866.59;2064452;86;30064;-59
2022/03/19 10:44:52;;;;;;;23.05;15.03;;;;;;;8.54;28.47;102891.52;2057695;86;27675;-61
2022/03/19 10:47:54;;;;;;;23.22;15.95;;;;;;;8.56;28.43;102879.06;2034130;87;29965;-59
2022/03/19 10:50:57;;;;;;;24.32;14.95;;;;;;;8.60;28.33;102875.94;2039524;86;32362;-59
2022/03/19 10:53:59;;;;;;;28.10;16.05;;;;;;;8.61;28.21;102873.72;2063076;86;33849;-60
2022/03/19 10:57:03;;;;;;;22.48;14.78;;;;;;;8.54;28.09;102871.91;2064527;86;30146;-60
2022/03/19 11:00:06;;;;;;;35.35;16.95;;;;;;;8.54;28.67;102868.81;2064701;86;27727;-59
2022/03/19 11:03:18;;;;;;;29.95;16.02;;;;;;;8.57;28.49;102868.83;2033194;86;28763;-64
2022/03/19 11:06:21;;;;;;;24.30;15.58;;;;;;;8.56;28.56;102868.80;2030732;87;32537;-60
2022/03/19 11:09:27;;;;;;;22.50;15.53;;;;;;;8.56;28.84;102861.70;2030652;87;34004;-60
2022/03/19 11:12:32;;;;;;;22.27;15.58;;;;;;;8.61;28.50;102860.36;2030685;87;30336;-60
2022/03/19 11:15:35;;;;;;;24.77;15.25;;;;;;;8.62;28.87;102855.00;2031238;87;27747;-61
2022/03/19 11:18:40;;;;;;;25.02;16.20;;;;;;;8.63;28.53;102853.23;2030664;87;29754;-60
2022/03/19 11:21:42;;;;;;;18.92;13.20;;;;;;;8.63;28.03;102853.23;2010998;86;31254;-60
2022/03/19 11:25:06;;;;;;;29.00;15.38;;;;;;;8.60;27.58;102856.80;2036788;87;34223;-60
2022/03/19 11:28:15;;;;;;;27.25;16.25;;;;;;;8.54;28.23;102854.55;2037118;87;29365;-60
2022/03/19 11:31:16;;;;;;;24.98;14.70;;;;;;;8.47;28.55;102841.60;2003669;88;27711;-67
2022/03/19 11:34:20;;;;;;;22.07;13.53;;;;;;;8.47;27.21;102837.59;2003780;88;29114;-60
2022/03/19 11:37:21;;;;;;;25.17;14.98;;;;;;;8.49;28.12;102839.44;2004613;88;31067;-59
2022/03/19 11:40:35;;;;;;;26.85;16.87;;;;;;;8.45;28.06;102838.95;2004192;88;33564;-59
2022/03/19 11:43:38;;;;;;;20.43;13.43;;;;;;;8.47;27.98;102824.23;2004464;88;29339;-58
2022/03/19 11:46:59;;;;;;;21.35;14.15;;;;;;;8.55;28.30;102822.51;2004156;88;27748;-59
2022/03/19 11:50:04;;;;;;;25.43;15.83;;;;;;;8.61;28.48;102821.61;2015365;86;29550;-61
2022/03/19 11:53:06;;;;;;;24.20;12.95;;;;;;;8.62;28.17;102820.72;2036723;87;32052;-70
2022/03/19 11:56:08;;;;;;;25.37;15.13;;;;;;;8.61;27.42;102807.79;2037011;87;33783;-64
2022/03/19 11:59:28;;;;;;;23.80;14.55;;;;;;;8.62;27.89;102809.57;2004125;88;30717;-60
2022/03/19 12:02:32;;;;;;;26.25;15.63;;;;;;;8.66;28.34;102800.67;2003635;88;27692;-64
2022/03/19 12:05:39;;;;;;;26.17;16.73;;;;;;;8.66;28.05;102801.12;2065419;86;28700;-64
2022/03/19 12:08:49;;;;;;;31.82;17.40;;;;;;;8.66;28.06;102803.80;2070687;86;31200;-60
2022/03/19 12:12:18;;;;;;;30.45;17.35;;;;;;;8.64;28.44;102798.44;2070789;86;33184;-64
2022/03/19 12:15:40;;;;;;;29.10;16.02;;;;;;;8.64;28.62;102790.42;1962834;90;29722;-62
2022/03/19 12:18:46;;;;;;;28.27;16.05;;;;;;;8.68;27.86;102796.67;1957588;90;27779;-63
2022/03/19 12:21:47;;;;;;;28.50;16.65;;;;;;;8.68;27.84;102794.00;1957561;90;29939;-66
2022/03/19 12:24:50;;;;;;;29.50;15.30;;;;;;;8.71;28.40;102791.30;1995510;89;32322;-61
2022/03/19 12:27:56;;;;;;;22.40;14.33;;;;;;;8.75;27.91;102796.22;1995920;89;33218;-59
2022/03/19 12:31:13;;;;;;;24.37;15.75;;;;;;;8.78;27.11;102798.43;1997045;88;29269;-65
2022/03/19 12:34:23;;;;;;;29.85;15.80;;;;;;;8.79;27.20;102800.64;2002717;88;27724;-62
2022/03/19 12:37:25;;;;;;;25.68;15.88;;;;;;;8.77;27.83;102792.64;1995307;89;28687;-61
2022/03/19 12:41:23;;;;;;;28.27;15.93;;;;;;;8.83;27.91;102797.08;2002607;88;31895;-62
2022/03/19 12:43:38;;;;;;;28.80;15.58;;;;;;;8.86;27.57;102793.50;2014566;88;33968;-61
2022/03/19 12:46:41;;;;;;;27.55;16.07;;;;;;;8.88;26.77;102783.70;1999770;88;29327;-63
2022/03/19 12:49:52;;;;;;;28.17;17.90;;;;;;;8.86;27.30;102783.71;2060549;84;28301;-61
2022/03/19 12:52:54;;;;;;;27.65;16.37;;;;;;;8.90;28.02;102785.92;2054215;86;28762;-63
2022/03/19 12:56:18;;;;;;;24.92;14.95;;;;;;;8.97;27.23;102787.70;2054039;85;31492;-69
2022/03/19 12:59:23;;;;;;;22.85;14.98;;;;;;;8.96;26.90;102785.45;2023389;87;32987;-70
2022/03/19 13:02:27;;;;;;;25.97;15.98;;;;;;;8.97;27.50;102781.02;2025798;87;28350;-66
2022/03/19 13:05:29;;;;;;;24.55;14.95;;;;;;;9.00;27.59;102782.34;2030069;87;27680;-68
2022/03/19 13:08:49;;;;;;;22.65;15.35;;;;;;;9.03;26.88;102783.66;2030202;87;29930;-67
2022/03/19 13:11:51;;;;;;;24.77;15.68;;;;;;;9.04;27.54;102778.75;2062689;86;31086;-61
2022/03/19 13:14:56;;;;;;;18.65;12.43;;;;;;;9.07;26.94;102777.41;2033832;86;33525;-62
2022/03/19 13:17:59;;;;;;;21.97;14.40;;;;;;;9.08;25.98;102787.67;2031894;87;28762;-67
2022/03/19 13:21:11;;;;;;;21.55;13.22;;;;;;;9.10;26.67;102776.53;2033688;86;27871;-65
2022/03/19 13:24:13;;;;;;;24.80;14.60;;;;;;;9.12;27.04;102779.63;2052634;86;28674;-65
2022/03/19 13:27:15;;;;;;;16.87;11.10;;;;;;;9.19;27.76;102780.92;2063780;86;31077;-66
2022/03/19 13:30:17;;;;;;;21.93;14.68;;;;;;;9.24;27.06;102783.14;2063537;86;33871;-61
2022/03/19 13:33:20;;;;;;;24.20;16.25;;;;;;;9.27;27.46;102776.45;2040497;87;30715;-64
2022/03/19 13:36:26;;;;;;;30.15;16.70;;;;;;;9.31;27.24;102767.95;2064000;86;27694;-67
2022/03/19 13:39:35;;;;;;;29.65;16.37;;;;;;;9.34;27.06;102766.61;2060291;84;28717;-67
2022/03/19 13:42:42;;;;;;;28.55;16.35;;;;;;;9.35;27.58;102760.37;2053243;84;31023;-66
2022/03/19 13:45:44;;;;;;;25.65;16.55;;;;;;;9.38;27.16;102768.38;2058519;86;33617;-71
2022/03/19 13:48:48;;;;;;;25.35;14.73;;;;;;;9.33;26.82;102763.06;2060098;86;29432;-69
2022/03/19 13:51:51;;;;;;;29.45;15.45;;;;;;;9.32;26.41;102760.38;2064078;86;28304;-72
2022/03/19 13:54:55;;;;;;;23.85;14.95;;;;;;;9.32;27.22;102755.93;2063108;84;29591;-73
2022/03/19 13:58:01;;;;;;;24.67;15.80;;;;;;;9.33;26.12;102777.77;2053702;86;31882;-68
2022/03/19 14:01:15;;;;;;;26.75;16.73;;;;;;;9.32;26.50;102758.61;2033800;87;34302;-72
2022/03/19 14:04:19;;;;;;;26.30;15.53;;;;;;;9.32;26.74;102760.38;2059204;86;29354;-70
2022/03/19 14:07:33;;;;;;;24.77;16.12;;;;;;;9.31;27.21;102748.80;2029128;87;27753;-70
2022/03/19 14:10:38;;;;;;;24.32;13.58;;;;;;;9.34;26.73;102750.12;2030743;87;28689;-69